Progresso, New Mexico
Current Conditions -  °F | °C
As of 11:15 AM on Thursday 30 Oct 2014 (Local Time) from K0E0 Reporting Station
Clear Clear  
Wind Chill: 65°   Ceiling: Unl
Heat Index: 65°   Visibility: 10mi
Dew Point: 14°   Wind: 7mph
Humidity: 14%   Direction: 150°SSE
Pressure: 30.4"   Gusts: NA
Location:  34.4464°N, 106.01°W
Report Text: K0E0 301715Z AUTO 15006KT 10SM CLR 19/M10 A3040 RMK AO2 T01861100
Loading
Personal Weather Stations






























Interactive Weather Map New forecast layout! Learn more

10-Day Weather Forecast

Advertisements
Track Severe Weather on mobile